If you wish to contribute or participate in the discussions about articles you are invited to join SKYbrary as a registered user

 Actions

Figari Sud-Corse Airport

From SKYbrary Wiki

LFKF
Airport
ICAO: LFKF – IATA: FSC
Summary
Name Figari Sud-Corse Airport
Region Europe
Territory France FR.gif
Location , Corse
Serving Figari
Elevation 26.518 m
87 ft
87 ft26.518 m
Type medium airport
Coordinates 41° 30' 2.01" N, 9° 5' 52.00" E
Runways
Designator Length Width Surface ROPS
5/23 2480 m8,136.483 ft
45 m147.638 ft
ASP yes/yes


METAR
Observation LFKF 230930Z AUTO 06019G31KT 9999 BKN020 BKN028 OVC034 23/18 Q1015 NOSIG
Station Figari
Date/Time 23 October 2019 09:30:00
Wind direction 60°
Wind speed 19 kts
Lowest cloud amount broken clouds
Temperature 23°C
Dew point 18°C
Humidity 73%
QNH 1015 hPa
Weather condition n/a